createdAt,value
2023-04-25T00:02:09.838Z,9.88
2023-04-25T00:04:36.737Z,10.03
2023-04-25T00:07:03.837Z,9.70
2023-04-25T00:09:30.791Z,9.58
2023-04-25T00:11:57.486Z,9.48
2023-04-25T00:14:24.100Z,9.57
2023-04-25T00:16:50.727Z,9.64
2023-04-25T00:19:17.342Z,9.54
2023-04-25T00:21:44.105Z,9.49
2023-04-25T00:24:10.736Z,9.57
2023-04-25T00:26:37.562Z,9.37
2023-04-25T00:29:04.350Z,9.63
2023-04-25T00:31:31.722Z,9.59
2023-04-25T00:33:58.333Z,9.48
2023-04-25T00:36:24.946Z,9.48
2023-04-25T00:38:51.647Z,9.39
2023-04-25T00:41:18.292Z,9.48
2023-04-25T00:43:47.195Z,9.63
2023-04-25T00:46:14.127Z,9.70
2023-04-25T00:48:40.871Z,9.50
2023-04-25T00:51:07.751Z,9.30
2023-04-25T00:53:34.498Z,9.58
2023-04-25T00:56:01.232Z,9.67
2023-04-25T00:58:28.033Z,9.35
2023-04-25T01:00:54.879Z,9.33
2023-04-25T01:03:21.990Z,9.31
2023-04-25T01:05:49.253Z,9.26
2023-04-25T01:08:15.993Z,9.40
2023-04-25T01:10:42.852Z,9.30
2023-04-25T01:13:10.000Z,9.22
2023-04-25T01:15:36.764Z,9.27
2023-04-25T01:18:04.737Z,9.33
2023-04-25T01:20:33.273Z,9.42
2023-04-25T01:23:00.210Z,9.49
2023-04-25T01:25:27.191Z,9.28
2023-04-25T01:27:54.114Z,9.42
2023-04-25T01:30:21.179Z,9.47
2023-04-25T01:32:48.726Z,9.33
2023-04-25T01:35:15.387Z,9.47
2023-04-25T01:37:43.923Z,9.42
2023-04-25T01:40:11.730Z,9.38
2023-04-25T01:42:43.860Z,9.13
2023-04-25T01:45:11.498Z,9.22
2023-04-25T01:47:39.730Z,9.28
2023-04-25T01:50:08.231Z,9.18
2023-04-25T01:52:35.126Z,9.19
2023-04-25T01:55:03.393Z,9.16
2023-04-25T01:57:30.147Z,9.11
2023-04-25T02:00:00.987Z,9.02
2023-04-25T02:02:27.917Z,9.07
2023-04-25T02:04:54.684Z,9.11
2023-04-25T02:07:21.909Z,9.04
2023-04-25T02:09:48.784Z,9.19
2023-04-25T02:12:15.439Z,9.31
2023-04-25T02:14:42.178Z,9.21
2023-04-25T02:17:09.031Z,9.44
2023-04-25T02:19:36.172Z,9.18
2023-04-25T02:22:02.901Z,9.22
2023-04-25T02:24:29.604Z,9.14
2023-04-25T02:26:56.181Z,9.03
2023-04-25T02:29:23.954Z,9.17
2023-04-25T02:31:50.896Z,9.10
2023-04-25T02:34:17.780Z,9.03
2023-04-25T02:36:44.536Z,9.09
2023-04-25T02:39:11.192Z,9.06
2023-04-25T02:41:40.963Z,9.22
2023-04-25T02:44:07.576Z,9.18
2023-04-25T02:46:39.599Z,9.29
2023-04-25T02:49:07.457Z,9.31
2023-04-25T02:51:34.126Z,9.41
2023-04-25T02:54:00.818Z,9.20
2023-04-25T02:56:27.594Z,9.21
2023-04-25T02:58:54.961Z,9.25
2023-04-25T03:01:21.752Z,9.28
2023-04-25T03:03:48.647Z,9.42
2023-04-25T03:06:15.544Z,9.45
2023-04-25T03:08:42.251Z,9.56
2023-04-25T03:11:08.908Z,9.49
2023-04-25T03:13:35.586Z,9.23
2023-04-25T03:16:02.338Z,9.38
2023-04-25T03:18:29.016Z,9.33
2023-04-25T03:20:55.809Z,9.49
2023-04-25T03:23:22.516Z,9.28
2023-04-25T03:25:49.202Z,9.11
2023-04-25T03:28:16.048Z,9.13
2023-04-25T03:30:42.653Z,9.13
2023-04-25T03:33:09.261Z,9.26
2023-04-25T03:35:35.953Z,9.21
2023-04-25T03:38:02.586Z,9.25
2023-04-25T03:40:29.214Z,9.19
2023-04-25T03:42:55.817Z,9.03
2023-04-25T03:45:22.533Z,8.87
2023-04-25T03:47:49.192Z,9.06
2023-04-25T03:50:15.852Z,9.11
2023-04-25T03:52:42.463Z,8.88
2023-04-25T03:55:09.720Z,8.96
2023-04-25T03:57:36.285Z,9.01
2023-04-25T04:00:03.351Z,8.96
2023-04-25T04:02:30.136Z,8.86
2023-04-25T04:04:57.236Z,8.89
2023-04-25T04:07:26.851Z,8.77
2023-04-25T04:09:53.507Z,8.76
2023-04-25T04:12:20.203Z,8.76
2023-04-25T04:14:46.795Z,8.61
2023-04-25T04:17:16.097Z,8.82
2023-04-25T04:19:42.692Z,8.85
2023-04-25T04:22:09.346Z,8.73
2023-04-25T04:24:36.139Z,8.65
2023-04-25T04:27:02.876Z,8.64
2023-04-25T04:29:29.618Z,8.66
2023-04-25T04:31:56.629Z,8.64
2023-04-25T04:34:23.483Z,8.43
2023-04-25T04:36:50.190Z,8.56
2023-04-25T04:39:16.980Z,8.51
2023-04-25T04:41:43.619Z,8.66
2023-04-25T04:44:10.258Z,8.61
2023-04-25T04:46:36.937Z,8.64
2023-04-25T04:49:03.598Z,8.37
2023-04-25T04:51:30.296Z,8.45
2023-04-25T04:53:57.040Z,8.58
2023-04-25T04:56:23.686Z,8.61
2023-04-25T04:58:50.305Z,8.55
2023-04-25T05:01:17.010Z,8.40
2023-04-25T05:03:43.863Z,8.35
2023-04-25T05:06:10.941Z,8.54
2023-04-25T05:08:37.838Z,8.23
2023-04-25T05:11:04.621Z,8.29
2023-04-25T05:13:31.554Z,8.29
2023-04-25T05:15:58.416Z,8.15
2023-04-25T05:18:25.121Z,8.43
2023-04-25T05:20:51.709Z,8.15
2023-04-25T05:23:18.510Z,8.25
2023-04-25T05:25:45.204Z,8.08
2023-04-25T05:28:14.083Z,8.09
2023-04-25T05:30:40.713Z,8.00
2023-04-25T05:33:07.350Z,8.07
2023-04-25T05:35:34.131Z,7.91
2023-04-25T05:38:00.830Z,7.90
2023-04-25T05:40:27.563Z,7.68
2023-04-25T05:42:54.204Z,7.74
2023-04-25T05:45:20.902Z,7.64
2023-04-25T05:47:47.604Z,7.67
2023-04-25T05:50:14.219Z,7.69
2023-04-25T05:52:40.906Z,7.75
2023-04-25T05:55:07.873Z,7.62
2023-04-25T05:57:34.647Z,7.53
2023-04-25T06:00:01.595Z,7.30
2023-04-25T06:02:28.394Z,7.43
2023-04-25T06:04:55.693Z,7.46
2023-04-25T06:07:22.482Z,7.52
2023-04-25T06:09:50.272Z,7.39
2023-04-25T06:12:16.894Z,7.22
2023-04-25T06:14:43.540Z,7.20
2023-04-25T06:17:10.357Z,7.14
2023-04-25T06:19:37.420Z,7.34
2023-04-25T06:22:04.243Z,7.38
2023-04-25T06:24:30.872Z,7.18
2023-04-25T06:26:57.536Z,7.29
2023-04-25T06:29:24.257Z,7.28
2023-04-25T06:31:50.998Z,7.45
2023-04-25T06:34:17.740Z,7.43
2023-04-25T06:36:44.499Z,7.58
2023-04-25T06:39:12.019Z,7.57
2023-04-25T06:41:38.685Z,7.49
2023-04-25T06:44:05.362Z,7.51
2023-04-25T06:46:32.075Z,7.71
2023-04-25T06:48:58.704Z,7.89
2023-04-25T06:51:25.503Z,7.92
2023-04-25T06:53:52.211Z,7.94
2023-04-25T06:56:18.896Z,8.26
2023-04-25T06:58:45.598Z,8.23
2023-04-25T07:01:12.312Z,8.02
2023-04-25T07:03:39.136Z,8.13
2023-04-25T07:06:06.053Z,8.03
2023-04-25T07:08:32.768Z,8.15
2023-04-25T07:10:59.360Z,8.29
2023-04-25T07:13:25.985Z,8.17
2023-04-25T07:15:52.663Z,8.21
2023-04-25T07:18:19.330Z,8.29
2023-04-25T07:20:45.981Z,8.52
2023-04-25T07:23:12.670Z,8.34
2023-04-25T07:25:39.323Z,8.55
2023-04-25T07:28:05.955Z,8.64
2023-04-25T07:30:32.614Z,8.77
2023-04-25T07:32:59.268Z,8.88
2023-04-25T07:35:25.956Z,8.97
2023-04-25T07:37:52.723Z,8.89
2023-04-25T07:40:19.555Z,8.90
2023-04-25T07:42:46.189Z,9.08
2023-04-25T07:45:12.828Z,8.89
2023-04-25T07:47:39.510Z,8.67
2023-04-25T07:50:06.759Z,8.76
2023-04-25T07:52:33.487Z,8.90
2023-04-25T07:55:00.109Z,9.07
2023-04-25T07:57:27.006Z,8.94
2023-04-25T07:59:53.630Z,9.06
2023-04-25T08:02:20.285Z,9.36
2023-04-25T08:04:47.099Z,9.26
2023-04-25T08:07:13.959Z,9.22
2023-04-25T08:09:40.721Z,9.26
2023-04-25T08:12:07.425Z,9.47
2023-04-25T08:14:34.053Z,9.41
2023-04-25T08:17:00.736Z,9.78
2023-04-25T08:19:27.369Z,10.12
2023-04-25T08:21:53.996Z,10.20
2023-04-25T08:24:20.727Z,10.57
2023-04-25T08:26:47.529Z,10.43
2023-04-25T08:29:14.292Z,10.43
2023-04-25T08:31:41.047Z,10.38
2023-04-25T08:34:07.726Z,10.67
2023-04-25T08:36:39.675Z,10.87
2023-04-25T08:39:07.172Z,10.60
2023-04-25T08:41:33.797Z,10.84
2023-04-25T08:44:00.802Z,11.15
2023-04-25T08:46:28.312Z,11.40
2023-04-25T08:49:02.155Z,11.01
2023-04-25T08:51:33.387Z,11.08
2023-04-25T08:56:48.896Z,11.39
2023-04-25T08:59:15.806Z,11.33
2023-04-25T09:01:42.581Z,11.29
2023-04-25T09:04:09.334Z,10.75
2023-04-25T09:06:37.021Z,10.65
2023-04-25T09:09:05.741Z,10.64
2023-04-25T09:11:33.677Z,10.43
2023-04-25T09:14:16.198Z,10.68
2023-04-25T09:17:00.711Z,10.84
2023-04-25T09:19:39.557Z,10.97
2023-04-25T09:22:08.637Z,10.86
2023-04-25T09:24:45.170Z,11.57
2023-04-25T09:27:14.868Z,11.74
2023-04-25T09:29:42.160Z,11.73
2023-04-25T09:32:21.122Z,11.66
2023-04-25T09:34:50.553Z,11.89
2023-04-25T09:37:24.907Z,11.76
2023-04-25T09:39:56.853Z,11.97
2023-04-25T09:42:25.393Z,12.19
2023-04-25T09:44:56.680Z,12.15
2023-04-25T09:47:25.645Z,11.85
2023-04-25T09:49:53.519Z,12.25
2023-04-25T09:52:26.103Z,12.41
2023-04-25T09:54:53.460Z,12.66
2023-04-25T09:57:21.119Z,12.80
2023-04-25T09:59:49.831Z,12.29
2023-04-25T10:02:22.236Z,12.05
2023-04-25T10:04:51.400Z,11.90
2023-04-25T10:07:24.057Z,11.93
2023-04-25T10:09:56.382Z,11.69
2023-04-25T10:12:23.112Z,11.83
2023-04-25T10:14:50.137Z,12.22
2023-04-25T10:17:18.487Z,12.26
2023-04-25T10:19:45.787Z,12.12
2023-04-25T10:22:27.541Z,12.18
2023-04-25T10:24:54.788Z,12.34
2023-04-25T10:27:21.572Z,11.79
2023-04-25T10:30:17.077Z,11.61
2023-04-25T10:32:44.696Z,11.86
2023-04-25T10:35:26.784Z,11.85
2023-04-25T10:38:00.374Z,11.68
2023-04-25T10:40:27.888Z,11.65
2023-04-25T10:42:55.321Z,11.85
2023-04-25T10:45:22.137Z,11.96
2023-04-25T10:47:49.110Z,11.97
2023-04-25T10:50:16.677Z,11.84
2023-04-25T10:52:43.585Z,12.15
2023-04-25T10:55:10.423Z,12.01
2023-04-25T10:57:45.222Z,12.04
2023-04-25T11:00:15.485Z,12.11
2023-04-25T11:02:48.107Z,11.97
2023-04-25T11:05:36.318Z,12.28
2023-04-25T11:08:12.463Z,12.39
2023-04-25T11:10:41.160Z,12.01
2023-04-25T11:13:07.847Z,12.03
2023-04-25T11:15:34.555Z,11.97
2023-04-25T11:18:02.003Z,12.00
2023-04-25T11:20:28.958Z,12.19
2023-04-25T11:22:58.765Z,12.52
2023-04-25T11:25:25.508Z,12.75
2023-04-25T11:27:57.687Z,12.86
2023-04-25T11:30:26.841Z,12.85
2023-04-25T11:32:54.016Z,12.88
2023-04-25T11:35:21.344Z,12.68
2023-04-25T11:37:48.098Z,12.61
2023-04-25T11:40:15.111Z,12.84
2023-04-25T11:42:46.890Z,12.79
2023-04-25T11:45:14.444Z,12.75
2023-04-25T11:47:41.258Z,13.10
2023-04-25T11:50:09.498Z,13.12
2023-04-25T11:52:36.852Z,12.70
2023-04-25T11:55:09.916Z,12.51
2023-04-25T11:57:42.312Z,12.27
2023-04-25T12:00:12.969Z,12.31
2023-04-25T12:02:57.556Z,12.29
2023-04-25T12:05:34.278Z,12.42
2023-04-25T12:08:12.377Z,12.36
2023-04-25T12:10:40.561Z,12.21
2023-04-25T12:13:25.001Z,12.35
2023-04-25T12:15:51.889Z,12.51
2023-04-25T12:18:22.255Z,12.71
2023-04-25T12:20:48.910Z,13.07
2023-04-25T12:23:15.688Z,13.06
2023-04-25T12:25:44.696Z,13.07
2023-04-25T12:28:23.040Z,13.02
2023-04-25T12:31:01.662Z,12.85
2023-04-25T12:33:37.100Z,13.22
2023-04-25T12:36:06.580Z,13.25
2023-04-25T12:38:38.210Z,13.48
2023-04-25T12:41:04.899Z,13.71
2023-04-25T12:43:31.533Z,13.71
2023-04-25T12:45:58.234Z,13.32
2023-04-25T12:48:25.568Z,13.65
2023-04-25T12:50:53.051Z,13.78
2023-04-25T12:53:21.555Z,14.21
2023-04-25T12:55:48.796Z,14.30
2023-04-25T12:58:16.091Z,14.41
2023-04-25T13:00:42.911Z,13.73
2023-04-25T13:03:10.076Z,14.01
2023-04-25T13:05:36.865Z,14.28
2023-04-25T13:08:04.101Z,14.43
2023-04-25T13:10:31.024Z,14.77
2023-04-25T13:12:57.668Z,13.86
2023-04-25T13:15:24.366Z,13.76
2023-04-25T13:17:51.107Z,13.63
2023-04-25T13:20:17.794Z,13.86
2023-04-25T13:22:44.469Z,14.17
2023-04-25T13:25:11.120Z,14.55
2023-04-25T13:27:38.517Z,14.08
2023-04-25T13:30:05.975Z,14.32
2023-04-25T13:32:32.663Z,14.41
2023-04-25T13:34:59.293Z,13.41
2023-04-25T13:37:25.907Z,13.52
2023-04-25T13:39:52.850Z,13.33
2023-04-25T13:42:19.765Z,13.47
2023-04-25T13:44:46.420Z,13.62
2023-04-25T13:47:13.313Z,13.26
2023-04-25T13:49:39.982Z,13.66
2023-04-25T13:52:06.693Z,13.63
2023-04-25T13:54:33.351Z,13.80
2023-04-25T13:57:00.167Z,13.68
2023-04-25T13:59:27.981Z,13.66
2023-04-25T14:01:54.912Z,13.89
2023-04-25T14:04:21.759Z,14.23
2023-04-25T14:06:48.426Z,14.60
2023-04-25T14:09:15.052Z,14.47
2023-04-25T14:11:41.727Z,13.99
2023-04-25T14:14:08.430Z,13.99
2023-04-25T14:16:35.301Z,14.45
2023-04-25T14:19:02.289Z,14.38
2023-04-25T14:21:30.737Z,14.45
2023-04-25T14:23:57.381Z,14.09
2023-04-25T14:26:24.036Z,14.09
2023-04-25T14:28:52.168Z,14.20
2023-04-25T14:31:18.801Z,14.54
2023-04-25T14:33:45.586Z,14.83
2023-04-25T14:36:12.232Z,14.69
2023-04-25T14:38:38.890Z,14.83
2023-04-25T14:41:05.576Z,15.14
2023-04-25T14:43:32.210Z,14.65
2023-04-25T14:45:59.054Z,14.48
2023-04-25T14:48:25.937Z,14.82
2023-04-25T14:50:52.714Z,14.58
2023-04-25T14:53:19.395Z,14.77
2023-04-25T14:55:46.003Z,14.87
2023-04-25T14:58:12.869Z,15.05
2023-04-25T15:00:39.872Z,14.55
2023-04-25T15:03:06.656Z,14.67
2023-04-25T15:05:33.501Z,14.97
2023-04-25T15:08:00.161Z,14.91
2023-04-25T15:10:27.108Z,15.04
2023-04-25T15:12:53.776Z,14.72
2023-04-25T15:17:52.118Z,14.32
2023-04-25T15:20:18.848Z,14.68
2023-04-25T15:22:45.754Z,14.09
2023-04-25T15:25:12.930Z,13.99
2023-04-25T15:27:40.154Z,13.77
2023-04-25T15:30:07.927Z,13.51
2023-04-25T15:32:35.438Z,13.32
2023-04-25T15:35:05.352Z,13.40
2023-04-25T15:37:32.452Z,13.06
2023-04-25T15:40:15.128Z,12.90
2023-04-25T15:42:44.496Z,13.09
2023-04-25T15:45:11.840Z,12.84
2023-04-25T15:47:40.206Z,13.03
2023-04-25T15:50:09.108Z,13.27
2023-04-25T15:52:37.509Z,13.10
2023-04-25T15:55:05.626Z,12.88
2023-04-25T15:57:34.618Z,12.75
2023-04-25T16:00:05.823Z,12.61
2023-04-25T16:02:32.708Z,12.62
2023-04-25T16:04:59.631Z,12.62
2023-04-25T16:07:26.415Z,12.50
2023-04-25T16:09:53.019Z,12.48
2023-04-25T16:12:19.661Z,12.70
2023-04-25T16:14:46.307Z,12.72
2023-04-25T16:17:12.940Z,13.02
2023-04-25T16:19:39.587Z,13.46
2023-04-25T16:22:06.301Z,13.11
2023-04-25T16:24:32.893Z,12.35
2023-04-25T16:26:59.558Z,11.89
2023-04-25T16:29:26.166Z,12.10
2023-04-25T16:31:52.930Z,11.84
2023-04-25T16:34:19.959Z,11.83
2023-04-25T16:36:46.631Z,12.31
2023-04-25T16:39:13.225Z,12.45
2023-04-25T16:41:39.833Z,12.38
2023-04-25T16:44:06.499Z,12.19
2023-04-25T16:46:33.236Z,12.26
2023-04-25T16:48:59.956Z,11.99
2023-04-25T16:51:26.945Z,11.91
2023-04-25T16:53:53.974Z,11.81
2023-04-25T16:56:20.780Z,11.88
2023-04-25T16:58:47.421Z,11.65
2023-04-25T17:01:14.052Z,11.45
2023-04-25T17:03:40.877Z,11.55
2023-04-25T17:06:07.657Z,11.80
2023-04-25T17:08:34.259Z,11.52
2023-04-25T17:11:01.351Z,11.39
2023-04-25T17:13:30.945Z,11.51
2023-04-25T17:15:58.380Z,11.48
2023-04-25T17:18:25.773Z,11.40
2023-04-25T17:20:52.634Z,11.05
2023-04-25T17:23:19.384Z,10.83
2023-04-25T17:25:46.079Z,11.25
2023-04-25T17:28:12.965Z,11.32
2023-04-25T17:30:39.956Z,11.66
2023-04-25T17:33:08.875Z,11.58
2023-04-25T17:35:35.576Z,11.51
2023-04-25T17:38:02.852Z,11.43
2023-04-25T17:40:29.523Z,11.02
2023-04-25T17:42:56.140Z,11.10
2023-04-25T17:45:22.931Z,11.19
2023-04-25T17:47:49.694Z,10.89
2023-04-25T17:50:16.366Z,10.68
2023-04-25T17:52:43.821Z,10.59
2023-04-25T17:55:11.047Z,10.93
2023-04-25T17:57:37.665Z,10.96
2023-04-25T18:00:06.017Z,10.87
2023-04-25T18:02:32.977Z,10.97
2023-04-25T18:04:59.984Z,10.71
2023-04-25T18:07:26.697Z,10.55
2023-04-25T18:09:53.399Z,10.58
2023-04-25T18:12:20.358Z,10.49
2023-04-25T18:14:49.473Z,10.51
2023-04-25T18:17:16.230Z,11.06
2023-04-25T18:19:42.952Z,10.84
2023-04-25T18:22:09.683Z,10.63
2023-04-25T18:24:36.360Z,10.45
2023-04-25T18:27:03.107Z,10.71
2023-04-25T18:29:33.774Z,11.04
2023-04-25T18:32:01.644Z,10.40
2023-04-25T18:34:28.377Z,10.17
2023-04-25T18:36:55.022Z,9.88
2023-04-25T18:39:23.118Z,10.13
2023-04-25T18:41:58.014Z,10.12
2023-04-25T18:44:26.580Z,10.30
2023-04-25T18:46:53.339Z,10.27
2023-04-25T18:49:19.977Z,10.08
2023-04-25T18:51:46.927Z,10.28
2023-04-25T18:54:13.592Z,10.05
2023-04-25T18:56:40.259Z,9.96
2023-04-25T18:59:07.258Z,10.08
2023-04-25T19:01:34.373Z,10.03
2023-04-25T19:04:02.270Z,9.92
2023-04-25T19:06:30.980Z,9.72
2023-04-25T19:08:57.635Z,9.42
2023-04-25T19:11:24.676Z,9.54
2023-04-25T19:13:51.849Z,9.73
2023-04-25T19:16:19.088Z,9.70
2023-04-25T19:18:46.469Z,9.69
2023-04-25T19:21:13.215Z,9.58
2023-04-25T19:23:40.150Z,9.52
2023-04-25T19:26:06.963Z,9.49
2023-04-25T19:28:33.888Z,9.18
2023-04-25T19:31:00.625Z,9.29
2023-04-25T19:33:27.356Z,9.36
2023-04-25T19:35:54.174Z,9.13
2023-04-25T19:38:23.554Z,9.13
2023-04-25T19:40:50.324Z,9.06
2023-04-25T19:43:17.216Z,9.04
2023-04-25T19:45:43.895Z,9.17
2023-04-25T19:48:10.567Z,9.37
2023-04-25T19:50:37.250Z,9.20
2023-04-25T19:53:03.913Z,9.02
2023-04-25T19:55:30.520Z,8.83
2023-04-25T19:57:57.129Z,8.97
2023-04-25T20:00:23.975Z,9.05
2023-04-25T20:02:50.785Z,8.98
2023-04-25T20:05:17.765Z,8.71
2023-04-25T20:07:44.431Z,8.92
2023-04-25T20:10:12.172Z,8.96
2023-04-25T20:12:42.000Z,8.75
2023-04-25T20:15:09.595Z,8.43
2023-04-25T20:17:36.253Z,8.68
2023-04-25T20:20:03.156Z,8.71
2023-04-25T20:22:30.151Z,8.79
2023-04-25T20:24:56.800Z,8.58
2023-04-25T20:27:23.434Z,8.49
2023-04-25T20:29:50.187Z,8.45
2023-04-25T20:32:16.841Z,8.46
2023-04-25T20:34:43.478Z,8.77
2023-04-25T20:37:10.149Z,8.61
2023-04-25T20:39:36.946Z,8.66
2023-04-25T20:42:03.718Z,8.85
2023-04-25T20:44:30.413Z,8.84
2023-04-25T20:46:57.073Z,8.56
2023-04-25T20:49:23.727Z,8.43
2023-04-25T20:51:50.401Z,8.45
2023-04-25T20:54:17.015Z,8.46
2023-04-25T20:56:43.660Z,8.38
2023-04-25T20:59:10.386Z,8.55
2023-04-25T21:01:37.237Z,8.45
2023-04-25T21:04:04.115Z,8.21
2023-04-25T21:06:30.874Z,8.17
2023-04-25T21:08:57.564Z,8.07
2023-04-25T21:11:24.422Z,8.17
2023-04-25T21:13:51.221Z,8.35
2023-04-25T21:16:17.884Z,8.22
2023-04-25T21:18:44.575Z,8.32
2023-04-25T21:21:11.457Z,8.54
2023-04-25T21:23:38.124Z,8.13
2023-04-25T21:26:04.842Z,8.07
2023-04-25T21:28:31.549Z,8.14
2023-04-25T21:30:58.438Z,7.93
2023-04-25T21:33:25.050Z,7.86
2023-04-25T21:35:52.033Z,7.72
2023-04-25T21:38:18.860Z,7.79
2023-04-25T21:40:45.512Z,7.83
2023-04-25T21:43:12.107Z,8.02
2023-04-25T21:45:56.944Z,7.83
2023-04-25T21:48:25.417Z,7.92
2023-04-25T21:50:52.033Z,7.84
2023-04-25T21:53:18.681Z,7.82
2023-04-25T21:55:45.412Z,7.89
2023-04-25T21:58:12.049Z,8.17
2023-04-25T22:00:38.754Z,8.00
2023-04-25T22:03:05.490Z,7.99
2023-04-25T22:05:32.202Z,7.69
2023-04-25T22:07:58.853Z,7.84
2023-04-25T22:10:26.064Z,7.93
2023-04-25T22:12:52.880Z,7.92
2023-04-25T22:15:21.501Z,7.74
2023-04-25T22:17:48.190Z,7.76
2023-04-25T22:20:14.870Z,7.78
2023-04-25T22:22:41.783Z,7.76
2023-04-25T22:25:08.977Z,7.74
2023-04-25T22:27:35.674Z,7.41
2023-04-25T22:30:02.304Z,7.69
2023-04-25T22:32:29.188Z,7.70
2023-04-25T22:34:55.964Z,7.68
2023-04-25T22:37:22.593Z,7.63
2023-04-25T22:39:49.234Z,7.54
2023-04-25T22:42:15.950Z,7.68
2023-04-25T22:44:42.557Z,7.71
2023-04-25T22:47:09.278Z,7.57
2023-04-25T22:49:35.922Z,7.51
2023-04-25T22:52:02.544Z,7.58
2023-04-25T22:54:29.174Z,7.49
2023-04-25T22:56:55.805Z,7.66
2023-04-25T22:59:22.446Z,7.36
2023-04-25T23:01:49.178Z,7.16
2023-04-25T23:04:16.073Z,7.37
2023-04-25T23:06:42.824Z,7.48
2023-04-25T23:09:09.420Z,7.38
2023-04-25T23:11:36.018Z,7.55
2023-04-25T23:14:02.664Z,7.75
2023-04-25T23:16:29.322Z,7.67
2023-04-25T23:18:55.959Z,7.47
2023-04-25T23:21:22.618Z,7.48
2023-04-25T23:23:49.379Z,7.83
2023-04-25T23:26:16.118Z,7.75
2023-04-25T23:28:42.777Z,7.95
2023-04-25T23:31:10.594Z,7.61
2023-04-25T23:33:37.522Z,7.56
2023-04-25T23:36:04.474Z,7.67
2023-04-25T23:38:32.144Z,7.56
2023-04-25T23:40:58.757Z,7.42
2023-04-25T23:43:25.379Z,7.51
2023-04-25T23:45:52.150Z,7.68
2023-04-25T23:48:18.805Z,7.50
2023-04-25T23:50:45.437Z,7.40
2023-04-25T23:53:12.144Z,7.62
2023-04-25T23:55:38.965Z,7.58
2023-04-25T23:58:05.660Z,7.52
